createdAt,value
2023-05-10T00:01:12.349Z,99.92
2023-05-10T00:03:39.019Z,99.68
2023-05-10T00:06:09.429Z,99.68
2023-05-10T00:08:35.941Z,99.54
2023-05-10T00:11:02.398Z,99.39
2023-05-10T00:13:28.893Z,99.66
2023-05-10T00:15:55.425Z,99.45
2023-05-10T00:18:21.891Z,99.59
2023-05-10T00:20:49.591Z,99.69
2023-05-10T00:23:16.159Z,99.52
2023-05-10T00:25:42.734Z,99.55
2023-05-10T00:28:09.235Z,99.59
2023-05-10T00:30:37.648Z,99.50
2023-05-10T00:33:04.341Z,99.77
2023-05-10T00:35:30.974Z,99.65
2023-05-10T00:37:57.405Z,100.00
2023-05-10T00:40:23.975Z,100.00
2023-05-10T00:42:55.278Z,99.93
2023-05-10T00:45:21.804Z,99.99
2023-05-10T00:47:48.411Z,99.78
2023-05-10T00:50:15.949Z,99.90
2023-05-10T00:52:43.821Z,100.00
2023-05-10T00:55:11.651Z,99.90
2023-05-10T00:57:38.066Z,99.80
2023-05-10T01:00:07.384Z,99.90
2023-05-10T01:02:35.404Z,100.00
2023-05-10T01:05:04.443Z,99.80
2023-05-10T01:07:30.920Z,99.44
2023-05-10T01:09:57.670Z,99.50
2023-05-10T01:12:26.595Z,99.58
2023-05-10T01:14:53.163Z,99.46
2023-05-10T01:17:20.168Z,99.27
2023-05-10T01:19:46.867Z,99.09
2023-05-10T01:22:46.250Z,99.05
2023-05-10T01:25:42.621Z,98.84
2023-05-10T01:28:27.988Z,99.33
2023-05-10T01:31:22.691Z,98.66
2023-05-10T01:34:08.647Z,98.66
2023-05-10T01:36:42.863Z,98.32
2023-05-10T01:39:22.275Z,98.12
2023-05-10T01:41:55.117Z,98.12
2023-05-10T01:44:28.677Z,98.02
2023-05-10T01:47:06.030Z,98.31
2023-05-10T01:49:36.495Z,98.10
2023-05-10T01:52:15.292Z,97.64
2023-05-10T01:54:46.997Z,97.73
2023-05-10T01:57:14.982Z,97.76
2023-05-10T01:59:44.423Z,97.60
2023-05-10T02:02:12.895Z,97.43
2023-05-10T02:04:40.691Z,97.18
2023-05-10T02:07:08.014Z,97.34
2023-05-10T02:09:35.613Z,97.39
2023-05-10T02:12:03.852Z,97.35
2023-05-10T02:14:33.592Z,97.19
2023-05-10T02:17:00.954Z,97.39
2023-05-10T02:19:28.976Z,97.15
2023-05-10T02:21:58.252Z,97.40
2023-05-10T02:24:25.327Z,97.17
2023-05-10T02:26:54.903Z,97.17
2023-05-10T02:29:21.938Z,97.03
2023-05-10T02:31:49.152Z,96.78
2023-05-10T02:34:15.862Z,96.73
2023-05-10T02:36:43.052Z,96.62
2023-05-10T02:39:13.604Z,96.10
2023-05-10T02:41:42.533Z,96.54
2023-05-10T02:44:10.533Z,96.39
2023-05-10T02:46:38.478Z,96.31
2023-05-10T02:49:05.182Z,96.08
2023-05-10T02:51:34.612Z,96.27
2023-05-10T02:54:21.670Z,95.80
2023-05-10T02:56:52.173Z,95.73
2023-05-10T02:59:18.675Z,95.55
2023-05-10T03:01:45.188Z,95.46
2023-05-10T03:04:12.958Z,95.20
2023-05-10T03:06:39.675Z,94.91
2023-05-10T03:09:06.379Z,94.63
2023-05-10T03:12:03.086Z,94.78
2023-05-10T03:14:55.049Z,94.98
2023-05-10T03:17:36.551Z,94.84
2023-05-10T03:20:08.556Z,94.78
2023-05-10T03:22:39.543Z,95.24
2023-05-10T03:25:07.851Z,95.20
2023-05-10T03:27:36.798Z,95.07
2023-05-10T03:30:04.174Z,95.16
2023-05-10T03:32:35.258Z,95.06
2023-05-10T03:35:03.224Z,94.92
2023-05-10T03:37:29.909Z,94.78
2023-05-10T03:39:56.456Z,94.88
2023-05-10T03:42:26.187Z,94.63
2023-05-10T03:44:52.685Z,94.86
2023-05-10T03:47:19.146Z,94.86
2023-05-10T03:49:45.886Z,95.25
2023-05-10T03:52:12.957Z,95.36
2023-05-10T03:54:39.436Z,95.67
2023-05-10T03:57:06.079Z,95.67
2023-05-10T03:59:32.963Z,95.94
2023-05-10T04:01:59.594Z,95.47
2023-05-10T04:04:26.175Z,95.95
2023-05-10T04:06:52.616Z,96.01
2023-05-10T04:09:22.787Z,95.95
2023-05-10T04:11:49.240Z,95.83
2023-05-10T04:14:15.718Z,96.13
2023-05-10T04:16:42.315Z,95.55
2023-05-10T04:19:08.802Z,95.57
2023-05-10T04:21:35.315Z,95.47
2023-05-10T04:24:01.813Z,95.82
2023-05-10T04:26:28.628Z,95.37
2023-05-10T04:28:55.369Z,95.42
2023-05-10T04:31:22.512Z,94.92
2023-05-10T04:33:49.035Z,94.39
2023-05-10T04:36:15.532Z,93.93
2023-05-10T04:38:42.168Z,93.73
2023-05-10T04:41:10.017Z,93.54
2023-05-10T04:43:37.107Z,93.29
2023-05-10T04:46:04.153Z,92.93
2023-05-10T04:48:30.768Z,92.84
2023-05-10T04:50:57.446Z,92.20
2023-05-10T04:53:23.937Z,92.24
2023-05-10T04:55:50.543Z,91.94
2023-05-10T04:58:17.221Z,91.65
2023-05-10T05:00:43.702Z,91.69
2023-05-10T05:03:10.682Z,90.85
2023-05-10T05:05:37.443Z,90.96
2023-05-10T05:08:04.157Z,90.86
2023-05-10T05:10:30.813Z,90.67
2023-05-10T05:12:57.290Z,90.67
2023-05-10T05:15:23.774Z,89.95
2023-05-10T05:17:50.240Z,89.88
2023-05-10T05:20:17.259Z,90.18
2023-05-10T05:22:43.876Z,89.92
2023-05-10T05:25:10.282Z,90.15
2023-05-10T05:27:36.756Z,89.78
2023-05-10T05:30:03.268Z,89.28
2023-05-10T05:32:29.733Z,88.81
2023-05-10T05:34:56.341Z,89.06
2023-05-10T05:37:23.433Z,88.90
2023-05-10T05:39:49.890Z,88.87
2023-05-10T05:42:18.457Z,88.62
2023-05-10T05:44:45.288Z,88.26
2023-05-10T05:47:11.728Z,87.87
2023-05-10T05:49:38.170Z,87.93
2023-05-10T05:52:05.170Z,87.86
2023-05-10T05:54:32.340Z,87.47
2023-05-10T05:57:01.208Z,86.82
2023-05-10T05:59:28.084Z,86.13
2023-05-10T06:01:55.503Z,85.98
2023-05-10T06:04:24.685Z,85.66
2023-05-10T06:06:51.109Z,85.09
2023-05-10T06:09:17.608Z,85.01
2023-05-10T06:11:44.073Z,85.15
2023-05-10T06:14:10.832Z,85.28
2023-05-10T06:16:37.377Z,85.62
2023-05-10T06:19:04.154Z,86.09
2023-05-10T06:21:30.994Z,86.20
2023-05-10T06:23:57.481Z,86.67
2023-05-10T06:26:24.063Z,86.53
2023-05-10T06:28:50.503Z,86.75
2023-05-10T06:31:17.094Z,86.88
2023-05-10T06:33:43.630Z,86.78
2023-05-10T06:36:10.111Z,87.19
2023-05-10T06:38:36.578Z,87.07
2023-05-10T06:41:03.042Z,87.26
2023-05-10T06:43:29.765Z,86.98
2023-05-10T06:45:56.823Z,86.66
2023-05-10T06:48:23.483Z,86.61
2023-05-10T06:50:49.987Z,86.42
2023-05-10T06:53:16.381Z,86.66
2023-05-10T06:55:42.850Z,86.09
2023-05-10T06:58:09.446Z,85.98
2023-05-10T07:00:36.156Z,85.26
2023-05-10T07:03:02.838Z,85.29
2023-05-10T07:05:30.276Z,85.22
2023-05-10T07:07:58.370Z,85.01
2023-05-10T07:10:24.822Z,84.93
2023-05-10T07:12:51.329Z,84.77
2023-05-10T07:15:18.196Z,84.22
2023-05-10T07:17:46.094Z,84.40
2023-05-10T07:20:13.169Z,84.43
2023-05-10T07:22:39.593Z,84.87
2023-05-10T07:25:06.728Z,84.19
2023-05-10T07:27:33.535Z,84.08
2023-05-10T07:30:00.198Z,83.88
2023-05-10T07:32:26.808Z,83.54
2023-05-10T07:34:53.316Z,83.86
2023-05-10T07:37:19.912Z,83.11
2023-05-10T07:39:46.410Z,82.66
2023-05-10T07:42:12.791Z,82.20
2023-05-10T07:44:39.220Z,82.23
2023-05-10T07:47:05.737Z,82.15
2023-05-10T07:49:32.256Z,82.15
2023-05-10T07:51:58.720Z,81.80
2023-05-10T07:54:25.137Z,81.69
2023-05-10T07:56:52.192Z,81.75
2023-05-10T07:59:18.888Z,81.71
2023-05-10T08:01:45.780Z,82.12
2023-05-10T08:04:12.618Z,82.68
2023-05-10T08:06:39.168Z,83.18
2023-05-10T08:09:05.714Z,83.43
2023-05-10T08:11:33.702Z,83.71
2023-05-10T08:14:01.340Z,83.42
2023-05-10T08:16:28.368Z,83.19
2023-05-10T08:18:56.163Z,82.93
2023-05-10T08:21:22.668Z,83.00
2023-05-10T08:23:49.829Z,83.18
2023-05-10T08:26:16.270Z,83.06
2023-05-10T08:28:42.681Z,83.45
2023-05-10T08:31:09.180Z,83.14
2023-05-10T08:33:35.701Z,83.43
2023-05-10T08:36:02.143Z,82.84
2023-05-10T08:38:28.661Z,82.54
2023-05-10T08:40:57.888Z,82.32
2023-05-10T08:43:27.846Z,82.09
2023-05-10T08:45:56.015Z,81.09
2023-05-10T08:48:24.632Z,80.80
2023-05-10T08:50:53.575Z,80.60
2023-05-10T08:53:20.132Z,79.79
2023-05-10T08:55:47.157Z,78.97
2023-05-10T08:58:13.663Z,78.64
2023-05-10T09:00:40.333Z,78.17
2023-05-10T09:03:07.253Z,77.64
2023-05-10T09:05:33.713Z,77.25
2023-05-10T09:08:01.508Z,77.22
2023-05-10T09:10:28.891Z,77.26
2023-05-10T09:12:59.256Z,76.50
2023-05-10T09:15:26.203Z,75.47
2023-05-10T09:17:52.790Z,75.42
2023-05-10T09:20:20.276Z,74.48
2023-05-10T09:22:46.856Z,74.01
2023-05-10T09:25:15.755Z,73.20
2023-05-10T09:27:46.087Z,73.47
2023-05-10T09:30:17.626Z,72.90
2023-05-10T09:32:46.141Z,72.67
2023-05-10T09:35:18.428Z,72.99
2023-05-10T09:37:48.600Z,72.78
2023-05-10T09:40:16.294Z,72.57
2023-05-10T09:42:55.277Z,72.42
2023-05-10T09:45:23.342Z,71.56
2023-05-10T09:47:49.957Z,71.87
2023-05-10T09:50:16.431Z,71.23
2023-05-10T09:53:01.958Z,71.05
2023-05-10T09:55:40.698Z,70.36
2023-05-10T09:58:11.128Z,69.12
2023-05-10T10:00:39.693Z,69.15
2023-05-10T10:03:06.887Z,69.43
2023-05-10T10:05:35.117Z,69.09
2023-05-10T10:08:04.660Z,68.32
2023-05-10T10:10:32.645Z,68.38
2023-05-10T10:12:59.238Z,68.15
2023-05-10T10:15:25.905Z,66.91
2023-05-10T10:17:53.401Z,66.66
2023-05-10T10:20:21.575Z,65.85
2023-05-10T10:22:48.408Z,65.57
2023-05-10T10:25:16.857Z,65.31
2023-05-10T10:28:00.543Z,65.13
2023-05-10T10:30:35.836Z,63.62
2023-05-10T10:33:27.227Z,63.56
2023-05-10T10:35:55.540Z,63.97
2023-05-10T10:38:22.824Z,63.87
2023-05-10T10:40:49.672Z,63.79
2023-05-10T10:43:26.911Z,64.11
2023-05-10T10:46:13.944Z,64.64
2023-05-10T10:48:41.615Z,64.96
2023-05-10T10:51:10.090Z,66.18
2023-05-10T10:53:39.947Z,66.03
2023-05-10T10:56:08.383Z,66.31
2023-05-10T10:58:35.248Z,66.40
2023-05-10T11:01:20.590Z,66.13
2023-05-10T11:04:16.274Z,66.14
2023-05-10T11:06:43.442Z,66.25
2023-05-10T11:09:12.403Z,65.90
2023-05-10T11:11:56.274Z,66.04
2023-05-10T11:14:26.092Z,66.76
2023-05-10T11:16:52.689Z,66.51
2023-05-10T11:19:20.926Z,65.75
2023-05-10T11:21:52.104Z,65.25
2023-05-10T11:24:20.652Z,63.71
2023-05-10T11:26:47.199Z,62.41
2023-05-10T11:29:14.506Z,61.55
2023-05-10T11:31:48.117Z,60.86
2023-05-10T11:34:28.253Z,60.62
2023-05-10T11:36:56.900Z,61.37
2023-05-10T11:39:27.792Z,60.74
2023-05-10T11:41:54.232Z,60.18
2023-05-10T11:44:20.719Z,59.92
2023-05-10T11:46:47.153Z,59.53
2023-05-10T11:49:14.245Z,59.64
2023-05-10T11:51:40.831Z,59.49
2023-05-10T11:54:10.253Z,59.79
2023-05-10T11:56:38.364Z,60.29
2023-05-10T11:59:04.891Z,60.59
2023-05-10T12:01:31.618Z,60.45
2023-05-10T12:04:01.835Z,60.34
2023-05-10T12:06:29.940Z,60.35
2023-05-10T12:08:56.334Z,60.58
2023-05-10T12:11:26.088Z,60.04
2023-05-10T12:13:52.625Z,59.90
2023-05-10T12:16:21.554Z,59.68
2023-05-10T12:18:52.566Z,59.13
2023-05-10T12:21:21.365Z,59.18
2023-05-10T12:23:50.748Z,58.66
2023-05-10T12:26:17.241Z,58.68
2023-05-10T12:28:43.853Z,58.60
2023-05-10T12:31:10.341Z,58.79
2023-05-10T12:33:44.125Z,58.62
2023-05-10T12:36:11.672Z,59.00
2023-05-10T12:38:45.560Z,59.21
2023-05-10T12:41:13.907Z,58.85
2023-05-10T12:43:40.933Z,58.65
2023-05-10T12:46:12.059Z,57.98
2023-05-10T12:48:39.890Z,58.31
2023-05-10T12:51:09.554Z,57.99
2023-05-10T12:53:36.672Z,57.96
2023-05-10T12:56:03.213Z,57.98
2023-05-10T12:58:35.658Z,58.13
2023-05-10T13:01:02.864Z,58.63
2023-05-10T13:03:29.531Z,58.99
2023-05-10T13:05:55.974Z,60.07
2023-05-10T13:08:22.666Z,60.17
2023-05-10T13:10:49.376Z,61.05
2023-05-10T13:13:16.380Z,60.10
2023-05-10T13:15:42.840Z,60.09
2023-05-10T13:18:09.342Z,60.13
2023-05-10T13:20:35.878Z,60.08
2023-05-10T13:23:03.488Z,60.11
2023-05-10T13:25:30.005Z,59.34
2023-05-10T13:27:56.418Z,59.13
2023-05-10T13:30:23.082Z,59.13
2023-05-10T13:32:49.625Z,59.08
2023-05-10T13:35:16.395Z,58.42
2023-05-10T13:37:42.840Z,58.18
2023-05-10T13:40:09.798Z,57.67
2023-05-10T13:42:36.191Z,58.67
2023-05-10T13:45:02.730Z,58.38
2023-05-10T13:47:29.333Z,57.17
2023-05-10T13:49:56.099Z,56.92
2023-05-10T13:52:22.827Z,56.80
2023-05-10T13:54:49.290Z,56.53
2023-05-10T13:57:17.575Z,55.89
2023-05-10T13:59:43.968Z,55.08
2023-05-10T14:02:11.659Z,55.23
2023-05-10T14:04:38.621Z,55.65
2023-05-10T14:07:05.074Z,56.21
2023-05-10T14:09:32.192Z,56.03
2023-05-10T14:11:59.726Z,56.24
2023-05-10T14:14:26.233Z,54.96
2023-05-10T14:16:52.887Z,54.54
2023-05-10T14:19:19.418Z,53.82
2023-05-10T14:21:45.882Z,54.01
2023-05-10T14:24:12.860Z,54.84
2023-05-10T14:26:39.311Z,56.00
2023-05-10T14:29:05.728Z,56.19
2023-05-10T14:31:32.557Z,56.67
2023-05-10T14:34:00.045Z,56.66
2023-05-10T14:36:26.716Z,56.66
2023-05-10T14:38:53.283Z,57.23
2023-05-10T14:41:19.721Z,57.43
2023-05-10T14:43:46.104Z,57.75
2023-05-10T14:46:12.745Z,57.57
2023-05-10T14:48:39.257Z,58.21
2023-05-10T14:51:05.807Z,58.19
2023-05-10T14:53:32.254Z,58.48
2023-05-10T14:55:58.816Z,58.34
2023-05-10T14:58:25.249Z,58.00
2023-05-10T15:00:52.201Z,57.72
2023-05-10T15:03:19.167Z,57.75
2023-05-10T15:05:46.102Z,57.87
2023-05-10T15:08:13.391Z,57.72
2023-05-10T15:10:40.498Z,57.73
2023-05-10T15:13:06.978Z,57.35
2023-05-10T15:15:33.586Z,57.18
2023-05-10T15:18:00.136Z,57.16
2023-05-10T15:20:26.729Z,56.49
2023-05-10T15:22:53.195Z,56.94
2023-05-10T15:25:19.690Z,56.19
2023-05-10T15:27:46.224Z,55.95
2023-05-10T15:30:13.122Z,55.57
2023-05-10T15:32:40.909Z,55.58
2023-05-10T15:35:08.792Z,55.13
2023-05-10T15:37:35.399Z,55.38
2023-05-10T15:40:04.713Z,55.62
2023-05-10T15:42:32.527Z,55.74
2023-05-10T15:44:59.132Z,55.84
2023-05-10T15:47:26.988Z,55.81
2023-05-10T15:49:53.549Z,55.47
2023-05-10T15:52:21.502Z,55.91
2023-05-10T15:54:47.956Z,55.82
2023-05-10T15:57:14.438Z,55.86
2023-05-10T15:59:40.945Z,55.71
2023-05-10T16:02:08.633Z,55.87
2023-05-10T16:04:35.148Z,55.14
2023-05-10T16:07:01.561Z,55.61
2023-05-10T16:09:28.063Z,55.49
2023-05-10T16:11:54.789Z,55.18
2023-05-10T16:14:22.891Z,54.33
2023-05-10T16:16:49.517Z,54.46
2023-05-10T16:19:16.242Z,54.20
2023-05-10T16:21:42.744Z,53.88
2023-05-10T16:24:09.202Z,53.29
2023-05-10T16:26:40.664Z,53.22
2023-05-10T16:29:08.365Z,52.76
2023-05-10T16:31:35.104Z,52.57
2023-05-10T16:34:01.731Z,52.49
2023-05-10T16:36:29.494Z,52.46
2023-05-10T16:38:56.615Z,52.62
2023-05-10T16:41:23.039Z,52.76
2023-05-10T16:43:50.007Z,52.62
2023-05-10T16:46:16.575Z,52.04
2023-05-10T16:48:43.026Z,52.11
2023-05-10T16:51:09.504Z,52.07
2023-05-10T16:53:36.281Z,51.71
2023-05-10T16:56:03.108Z,51.76
2023-05-10T16:58:29.617Z,52.35
2023-05-10T17:00:56.126Z,52.53
2023-05-10T17:03:22.772Z,52.68
2023-05-10T17:05:49.372Z,52.70
2023-05-10T17:08:16.097Z,52.27
2023-05-10T17:10:42.758Z,52.09
2023-05-10T17:13:10.407Z,52.03
2023-05-10T17:15:38.407Z,50.98
2023-05-10T17:18:05.408Z,51.42
2023-05-10T17:20:31.906Z,51.14
2023-05-10T17:22:58.417Z,51.81
2023-05-10T17:25:24.891Z,51.47
2023-05-10T17:27:51.566Z,51.96
2023-05-10T17:30:22.470Z,51.81
2023-05-10T17:32:49.155Z,51.69
2023-05-10T17:35:16.312Z,52.25
2023-05-10T17:37:43.966Z,52.44
2023-05-10T17:40:11.241Z,53.15
2023-05-10T17:42:37.683Z,52.90
2023-05-10T17:45:04.244Z,53.21
2023-05-10T17:47:31.392Z,53.65
2023-05-10T17:49:57.806Z,54.38
2023-05-10T17:52:24.258Z,56.92
2023-05-10T17:54:51.127Z,57.48
2023-05-10T17:57:17.539Z,58.70
2023-05-10T17:59:44.000Z,58.79
2023-05-10T18:02:10.458Z,59.77
2023-05-10T18:04:39.701Z,61.19
2023-05-10T18:07:06.709Z,62.21
2023-05-10T18:09:34.192Z,62.28
2023-05-10T18:12:03.764Z,63.19
2023-05-10T18:14:39.792Z,63.24
2023-05-10T18:17:08.006Z,63.08
2023-05-10T18:19:34.609Z,63.08
2023-05-10T18:22:01.023Z,63.26
2023-05-10T18:24:38.288Z,63.43
2023-05-10T18:27:06.629Z,63.47
2023-05-10T18:29:33.044Z,63.84
2023-05-10T18:31:59.633Z,63.73
2023-05-10T18:34:26.126Z,63.87
2023-05-10T18:36:52.858Z,64.30
2023-05-10T18:39:19.380Z,64.32
2023-05-10T18:41:45.927Z,64.74
2023-05-10T18:44:12.370Z,64.44
2023-05-10T18:46:39.101Z,64.64
2023-05-10T18:49:06.401Z,64.83
2023-05-10T18:51:32.900Z,64.75
2023-05-10T18:53:59.425Z,65.26
2023-05-10T18:56:25.985Z,65.20
2023-05-10T18:58:52.642Z,65.23
2023-05-10T19:01:19.246Z,65.02
2023-05-10T19:03:45.732Z,65.25
2023-05-10T19:06:12.153Z,65.55
2023-05-10T19:08:38.600Z,65.92
2023-05-10T19:11:05.077Z,65.68
2023-05-10T19:13:31.476Z,65.82
2023-05-10T19:16:05.364Z,66.08
